sensor_id;sensor_type;location;lat;lon;timestamp;P1;durP1;ratioP1;P2;durP2;ratioP2
77160;SDS011;66135;0.000;0.000;2023-03-19T00:02:12;1.17;;;0.70;;
77160;SDS011;66135;0.000;0.000;2023-03-19T00:07:03;0.57;;;0.43;;
77160;SDS011;66135;0.000;0.000;2023-03-19T00:09:29;0.50;;;0.50;;
77160;SDS011;66135;0.000;0.000;2023-03-19T00:11:54;1.00;;;0.50;;
77160;SDS011;66135;0.000;0.000;2023-03-19T00:14:20;0.45;;;0.43;;
77160;SDS011;66135;0.000;0.000;2023-03-19T00:19:11;1.00;;;0.40;;
77160;SDS011;66135;0.000;0.000;2023-03-19T00:24:02;0.20;;;0.00;;
77160;SDS011;66135;0.000;0.000;2023-03-19T00:26:28;1.05;;;0.50;;
77160;SDS011;66135;0.000;0.000;2023-03-19T00:28:55;0.30;;;0.30;;
77160;SDS011;66135;0.000;0.000;2023-03-19T00:31:21;0.82;;;0.65;;
77160;SDS011;66135;0.000;0.000;2023-03-19T00:33:47;0.73;;;0.73;;
77160;SDS011;66135;0.000;0.000;2023-03-19T00:36:13;0.40;;;0.00;;
77160;SDS011;66135;0.000;0.000;2023-03-19T00:38:40;1.45;;;0.77;;
77160;SDS011;66135;0.000;0.000;2023-03-19T00:41:06;1.30;;;0.50;;
77160;SDS011;66135;0.000;0.000;2023-03-19T00:43:32;0.20;;;0.00;;
77160;SDS011;66135;0.000;0.000;2023-03-19T00:45:57;0.32;;;0.32;;
77160;SDS011;66135;0.000;0.000;2023-03-19T00:48:23;0.50;;;0.40;;
77160;SDS011;66135;0.000;0.000;2023-03-19T00:50:49;0.30;;;0.20;;
77160;SDS011;66135;0.000;0.000;2023-03-19T00:53:14;0.55;;;0.52;;
77160;SDS011;66135;0.000;0.000;2023-03-19T00:55:40;0.85;;;0.63;;
77160;SDS011;66135;0.000;0.000;2023-03-19T00:58:05;0.50;;;0.50;;
77160;SDS011;66135;0.000;0.000;2023-03-19T01:00:31;1.25;;;1.25;;
77160;SDS011;66135;0.000;0.000;2023-03-19T01:02:58;0.82;;;0.57;;
77160;SDS011;66135;0.000;0.000;2023-03-19T01:05:24;0.40;;;0.22;;
77160;SDS011;66135;0.000;0.000;2023-03-19T01:07:50;0.30;;;0.25;;
77160;SDS011;66135;0.000;0.000;2023-03-19T01:10:19;0.30;;;0.30;;
77160;SDS011;66135;0.000;0.000;2023-03-19T01:12:46;0.55;;;0.55;;
77160;SDS011;66135;0.000;0.000;2023-03-19T01:15:12;0.47;;;0.47;;
77160;SDS011;66135;0.000;0.000;2023-03-19T01:20:04;0.60;;;0.60;;
77160;SDS011;66135;0.000;0.000;2023-03-19T01:22:36;0.50;;;0.50;;
77160;SDS011;66135;0.000;0.000;2023-03-19T01:25:03;0.40;;;0.40;;
77160;SDS011;66135;0.000;0.000;2023-03-19T01:27:40;0.60;;;0.35;;
77160;SDS011;66135;0.000;0.000;2023-03-19T01:30:06;0.47;;;0.45;;
77160;SDS011;66135;0.000;0.000;2023-03-19T01:32:40;0.77;;;0.68;;
77160;SDS011;66135;0.000;0.000;2023-03-19T01:35:06;0.22;;;0.00;;
77160;SDS011;66135;0.000;0.000;2023-03-19T01:37:32;0.75;;;0.45;;
77160;SDS011;66135;0.000;0.000;2023-03-19T01:39:57;0.60;;;0.47;;
77160;SDS011;66135;0.000;0.000;2023-03-19T01:42:23;0.40;;;0.32;;
77160;SDS011;66135;0.000;0.000;2023-03-19T01:47:27;0.60;;;0.47;;
77160;SDS011;66135;0.000;0.000;2023-03-19T01:52:35;0.40;;;0.40;;
77160;SDS011;66135;0.000;0.000;2023-03-19T01:55:01;0.40;;;0.32;;
77160;SDS011;66135;0.000;0.000;2023-03-19T01:57:28;0.73;;;0.73;;
77160;SDS011;66135;0.000;0.000;2023-03-19T01:59:55;0.57;;;0.47;;
77160;SDS011;66135;0.000;0.000;2023-03-19T02:02:27;0.63;;;0.55;;
77160;SDS011;66135;0.000;0.000;2023-03-19T02:04:57;0.52;;;0.52;;
77160;SDS011;66135;0.000;0.000;2023-03-19T02:07:28;0.40;;;0.40;;
77160;SDS011;66135;0.000;0.000;2023-03-19T02:09:55;0.20;;;0.13;;
77160;SDS011;66135;0.000;0.000;2023-03-19T02:12:22;0.35;;;0.35;;
77160;SDS011;66135;0.000;0.000;2023-03-19T02:14:48;0.15;;;0.10;;
77160;SDS011;66135;0.000;0.000;2023-03-19T02:17:13;0.47;;;0.30;;
77160;SDS011;66135;0.000;0.000;2023-03-19T02:19:42;0.90;;;0.50;;
77160;SDS011;66135;0.000;0.000;2023-03-19T02:22:17;0.98;;;0.98;;
77160;SDS011;66135;0.000;0.000;2023-03-19T02:24:52;0.40;;;0.40;;
77160;SDS011;66135;0.000;0.000;2023-03-19T02:27:39;1.67;;;0.63;;
77160;SDS011;66135;0.000;0.000;2023-03-19T02:30:23;0.40;;;0.38;;
77160;SDS011;66135;0.000;0.000;2023-03-19T02:33:02;0.52;;;0.10;;
77160;SDS011;66135;0.000;0.000;2023-03-19T02:35:48;0.95;;;0.60;;
77160;SDS011;66135;0.000;0.000;2023-03-19T02:38:15;0.70;;;0.47;;
77160;SDS011;66135;0.000;0.000;2023-03-19T02:40:46;0.60;;;0.57;;
77160;SDS011;66135;0.000;0.000;2023-03-19T02:43:15;0.55;;;0.55;;
77160;SDS011;66135;0.000;0.000;2023-03-19T02:45:41;0.90;;;0.75;;
77160;SDS011;66135;0.000;0.000;2023-03-19T02:48:07;0.50;;;0.40;;
77160;SDS011;66135;0.000;0.000;2023-03-19T02:50:32;0.65;;;0.55;;
77160;SDS011;66135;0.000;0.000;2023-03-19T02:52:58;0.65;;;0.38;;
77160;SDS011;66135;0.000;0.000;2023-03-19T02:55:23;0.60;;;0.57;;
77160;SDS011;66135;0.000;0.000;2023-03-19T03:00:15;0.43;;;0.32;;
77160;SDS011;66135;0.000;0.000;2023-03-19T03:02:43;0.98;;;0.40;;
77160;SDS011;66135;0.000;0.000;2023-03-19T03:07:34;0.52;;;0.43;;
77160;SDS011;66135;0.000;0.000;2023-03-19T03:10:00;0.52;;;0.52;;
77160;SDS011;66135;0.000;0.000;2023-03-19T03:12:25;0.75;;;0.75;;
77160;SDS011;66135;0.000;0.000;2023-03-19T03:14:51;0.95;;;0.45;;
77160;SDS011;66135;0.000;0.000;2023-03-19T03:17:16;0.43;;;0.43;;
77160;SDS011;66135;0.000;0.000;2023-03-19T03:19:41;1.08;;;0.47;;
77160;SDS011;66135;0.000;0.000;2023-03-19T03:22:07;0.40;;;0.40;;
77160;SDS011;66135;0.000;0.000;2023-03-19T03:24:32;0.63;;;0.63;;
77160;SDS011;66135;0.000;0.000;2023-03-19T03:26:58;0.43;;;0.20;;
77160;SDS011;66135;0.000;0.000;2023-03-19T03:29:23;0.75;;;0.60;;
77160;SDS011;66135;0.000;0.000;2023-03-19T03:31:49;0.47;;;0.40;;
77160;SDS011;66135;0.000;0.000;2023-03-19T03:34:15;0.80;;;0.45;;
77160;SDS011;66135;0.000;0.000;2023-03-19T03:36:40;0.55;;;0.52;;
77160;SDS011;66135;0.000;0.000;2023-03-19T03:39:06;0.50;;;0.50;;
77160;SDS011;66135;0.000;0.000;2023-03-19T03:41:31;0.60;;;0.60;;
77160;SDS011;66135;0.000;0.000;2023-03-19T03:43:57;0.50;;;0.50;;
77160;SDS011;66135;0.000;0.000;2023-03-19T03:46:22;0.65;;;0.65;;
77160;SDS011;66135;0.000;0.000;2023-03-19T03:48:48;0.60;;;0.60;;
77160;SDS011;66135;0.000;0.000;2023-03-19T03:51:15;0.40;;;0.00;;
77160;SDS011;66135;0.000;0.000;2023-03-19T03:53:42;1.20;;;1.08;;
77160;SDS011;66135;0.000;0.000;2023-03-19T03:56:07;0.57;;;0.57;;
77160;SDS011;66135;0.000;0.000;2023-03-19T03:58:33;0.63;;;0.03;;
77160;SDS011;66135;0.000;0.000;2023-03-19T04:00:59;0.50;;;0.50;;
77160;SDS011;66135;0.000;0.000;2023-03-19T04:05:49;0.32;;;0.32;;
77160;SDS011;66135;0.000;0.000;2023-03-19T04:08:15;0.32;;;0.32;;
77160;SDS011;66135;0.000;0.000;2023-03-19T04:10:41;0.43;;;0.43;;
77160;SDS011;66135;0.000;0.000;2023-03-19T04:13:08;0.85;;;0.57;;
77160;SDS011;66135;0.000;0.000;2023-03-19T04:15:55;0.63;;;0.20;;
77160;SDS011;66135;0.000;0.000;2023-03-19T04:18:21;0.95;;;0.43;;
77160;SDS011;66135;0.000;0.000;2023-03-19T04:20:46;0.73;;;0.63;;
77160;SDS011;66135;0.000;0.000;2023-03-19T04:23:12;0.57;;;0.57;;
77160;SDS011;66135;0.000;0.000;2023-03-19T04:25:38;0.80;;;0.80;;
77160;SDS011;66135;0.000;0.000;2023-03-19T04:28:05;0.30;;;0.30;;
77160;SDS011;66135;0.000;0.000;2023-03-19T04:30:30;0.52;;;0.52;;
77160;SDS011;66135;0.000;0.000;2023-03-19T04:32:56;0.40;;;0.40;;
77160;SDS011;66135;0.000;0.000;2023-03-19T04:35:21;0.40;;;0.40;;
77160;SDS011;66135;0.000;0.000;2023-03-19T04:37:47;0.52;;;0.40;;
77160;SDS011;66135;0.000;0.000;2023-03-19T04:40:13;1.27;;;1.17;;
77160;SDS011;66135;0.000;0.000;2023-03-19T04:42:40;0.30;;;0.00;;
77160;SDS011;66135;0.000;0.000;2023-03-19T04:45:05;0.63;;;0.63;;
77160;SDS011;66135;0.000;0.000;2023-03-19T04:49:56;0.40;;;0.35;;
77160;SDS011;66135;0.000;0.000;2023-03-19T04:52:22;0.52;;;0.50;;
77160;SDS011;66135;0.000;0.000;2023-03-19T04:54:47;0.93;;;0.57;;
77160;SDS011;66135;0.000;0.000;2023-03-19T04:57:13;0.50;;;0.47;;
77160;SDS011;66135;0.000;0.000;2023-03-19T04:59:38;0.20;;;0.00;;
77160;SDS011;66135;0.000;0.000;2023-03-19T05:02:03;1.45;;;1.42;;
77160;SDS011;66135;0.000;0.000;2023-03-19T05:04:30;0.77;;;0.77;;
77160;SDS011;66135;0.000;0.000;2023-03-19T05:06:55;0.40;;;0.40;;
77160;SDS011;66135;0.000;0.000;2023-03-19T05:09:21;0.73;;;0.73;;
77160;SDS011;66135;0.000;0.000;2023-03-19T05:11:46;0.50;;;0.50;;
77160;SDS011;66135;0.000;0.000;2023-03-19T05:14:12;0.38;;;0.38;;
77160;SDS011;66135;0.000;0.000;2023-03-19T05:16:37;0.73;;;0.40;;
77160;SDS011;66135;0.000;0.000;2023-03-19T05:19:03;0.55;;;0.55;;
77160;SDS011;66135;0.000;0.000;2023-03-19T05:21:29;0.52;;;0.52;;
77160;SDS011;66135;0.000;0.000;2023-03-19T05:23:54;0.45;;;0.45;;
77160;SDS011;66135;0.000;0.000;2023-03-19T05:26:21;0.50;;;0.50;;
77160;SDS011;66135;0.000;0.000;2023-03-19T05:28:47;0.65;;;0.65;;
77160;SDS011;66135;0.000;0.000;2023-03-19T05:31:12;0.50;;;0.50;;
77160;SDS011;66135;0.000;0.000;2023-03-19T05:33:38;1.52;;;1.52;;
77160;SDS011;66135;0.000;0.000;2023-03-19T05:36:03;0.50;;;0.50;;
77160;SDS011;66135;0.000;0.000;2023-03-19T05:38:29;0.20;;;0.10;;
77160;SDS011;66135;0.000;0.000;2023-03-19T05:40:54;1.33;;;1.23;;
77160;SDS011;66135;0.000;0.000;2023-03-19T05:43:20;1.08;;;0.55;;
77160;SDS011;66135;0.000;0.000;2023-03-19T05:45:49;0.55;;;0.00;;
77160;SDS011;66135;0.000;0.000;2023-03-19T05:48:16;0.85;;;0.13;;
77160;SDS011;66135;0.000;0.000;2023-03-19T05:50:41;1.08;;;1.08;;
77160;SDS011;66135;0.000;0.000;2023-03-19T05:53:07;0.60;;;0.60;;
77160;SDS011;66135;0.000;0.000;2023-03-19T05:55:36;2.58;;;0.57;;
77160;SDS011;66135;0.000;0.000;2023-03-19T05:58:01;2.50;;;0.65;;
77160;SDS011;66135;0.000;0.000;2023-03-19T06:00:26;0.38;;;0.03;;
77160;SDS011;66135;0.000;0.000;2023-03-19T06:02:52;1.17;;;1.08;;
77160;SDS011;66135;0.000;0.000;2023-03-19T06:05:18;1.52;;;0.63;;
77160;SDS011;66135;0.000;0.000;2023-03-19T06:07:44;0.80;;;0.50;;
77160;SDS011;66135;0.000;0.000;2023-03-19T06:10:10;1.00;;;0.35;;
77160;SDS011;66135;0.000;0.000;2023-03-19T06:12:35;0.93;;;0.60;;
77160;SDS011;66135;0.000;0.000;2023-03-19T06:15:01;0.85;;;0.52;;
77160;SDS011;66135;0.000;0.000;2023-03-19T06:17:27;0.50;;;0.50;;
77160;SDS011;66135;0.000;0.000;2023-03-19T06:19:52;0.90;;;0.85;;
77160;SDS011;66135;0.000;0.000;2023-03-19T06:22:18;0.70;;;0.70;;
77160;SDS011;66135;0.000;0.000;2023-03-19T06:24:43;1.13;;;0.77;;
77160;SDS011;66135;0.000;0.000;2023-03-19T06:27:08;0.35;;;0.10;;
77160;SDS011;66135;0.000;0.000;2023-03-19T06:29:34;1.00;;;1.00;;
77160;SDS011;66135;0.000;0.000;2023-03-19T06:32:00;0.75;;;0.55;;
77160;SDS011;66135;0.000;0.000;2023-03-19T06:36:52;0.95;;;0.68;;
77160;SDS011;66135;0.000;0.000;2023-03-19T06:39:18;0.85;;;0.43;;
77160;SDS011;66135;0.000;0.000;2023-03-19T06:41:43;0.90;;;0.90;;
77160;SDS011;66135;0.000;0.000;2023-03-19T06:44:09;2.05;;;0.50;;
77160;SDS011;66135;0.000;0.000;2023-03-19T06:46:35;2.60;;;0.75;;
77160;SDS011;66135;0.000;0.000;2023-03-19T06:49:01;1.65;;;1.23;;
77160;SDS011;66135;0.000;0.000;2023-03-19T06:51:26;1.05;;;0.85;;
77160;SDS011;66135;0.000;0.000;2023-03-19T06:53:52;0.88;;;0.75;;
77160;SDS011;66135;0.000;0.000;2023-03-19T06:56:18;2.13;;;0.70;;
77160;SDS011;66135;0.000;0.000;2023-03-19T06:58:43;1.77;;;0.77;;
77160;SDS011;66135;0.000;0.000;2023-03-19T07:01:09;2.60;;;0.95;;
77160;SDS011;66135;0.000;0.000;2023-03-19T07:03:34;1.27;;;0.82;;
77160;SDS011;66135;0.000;0.000;2023-03-19T07:06:00;1.08;;;0.98;;
77160;SDS011;66135;0.000;0.000;2023-03-19T07:08:26;1.63;;;0.75;;
77160;SDS011;66135;0.000;0.000;2023-03-19T07:10:54;1.98;;;0.22;;
77160;SDS011;66135;0.000;0.000;2023-03-19T07:13:20;0.95;;;0.88;;
77160;SDS011;66135;0.000;0.000;2023-03-19T07:15:46;2.83;;;0.65;;
77160;SDS011;66135;0.000;0.000;2023-03-19T07:18:11;1.20;;;0.40;;
77160;SDS011;66135;0.000;0.000;2023-03-19T07:20:37;2.25;;;0.70;;
77160;SDS011;66135;0.000;0.000;2023-03-19T07:23:02;1.27;;;0.85;;
77160;SDS011;66135;0.000;0.000;2023-03-19T07:25:27;2.35;;;0.70;;
77160;SDS011;66135;0.000;0.000;2023-03-19T07:28:01;0.93;;;0.68;;
77160;SDS011;66135;0.000;0.000;2023-03-19T07:30:26;1.17;;;0.30;;
77160;SDS011;66135;0.000;0.000;2023-03-19T07:32:52;0.95;;;0.80;;
77160;SDS011;66135;0.000;0.000;2023-03-19T07:35:17;1.25;;;0.60;;
77160;SDS011;66135;0.000;0.000;2023-03-19T07:37:42;0.80;;;0.10;;
77160;SDS011;66135;0.000;0.000;2023-03-19T07:40:08;1.42;;;0.65;;
77160;SDS011;66135;0.000;0.000;2023-03-19T07:42:34;2.67;;;0.85;;
77160;SDS011;66135;0.000;0.000;2023-03-19T07:45:01;1.60;;;1.02;;
77160;SDS011;66135;0.000;0.000;2023-03-19T07:47:27;1.80;;;0.13;;
77160;SDS011;66135;0.000;0.000;2023-03-19T07:49:53;2.47;;;0.88;;
77160;SDS011;66135;0.000;0.000;2023-03-19T07:52:19;1.60;;;0.13;;
77160;SDS011;66135;0.000;0.000;2023-03-19T07:57:10;1.40;;;0.80;;
77160;SDS011;66135;0.000;0.000;2023-03-19T07:59:35;1.83;;;0.95;;
77160;SDS011;66135;0.000;0.000;2023-03-19T08:02:04;2.17;;;0.98;;
77160;SDS011;66135;0.000;0.000;2023-03-19T08:04:30;1.38;;;0.75;;
77160;SDS011;66135;0.000;0.000;2023-03-19T08:06:56;1.50;;;0.55;;
77160;SDS011;66135;0.000;0.000;2023-03-19T08:09:21;1.25;;;0.20;;
77160;SDS011;66135;0.000;0.000;2023-03-19T08:11:46;1.30;;;0.10;;
77160;SDS011;66135;0.000;0.000;2023-03-19T08:14:12;1.23;;;0.50;;
77160;SDS011;66135;0.000;0.000;2023-03-19T08:16:37;0.93;;;0.77;;
77160;SDS011;66135;0.000;0.000;2023-03-19T08:19:03;2.58;;;0.90;;
77160;SDS011;66135;0.000;0.000;2023-03-19T08:21:28;1.77;;;0.98;;
77160;SDS011;66135;0.000;0.000;2023-03-19T08:23:53;3.33;;;0.90;;
77160;SDS011;66135;0.000;0.000;2023-03-19T08:26:19;3.28;;;0.90;;
77160;SDS011;66135;0.000;0.000;2023-03-19T08:28:45;2.03;;;0.98;;
77160;SDS011;66135;0.000;0.000;2023-03-19T08:31:12;4.22;;;1.35;;
77160;SDS011;66135;0.000;0.000;2023-03-19T08:33:38;4.43;;;1.40;;
77160;SDS011;66135;0.000;0.000;2023-03-19T08:36:05;3.50;;;0.40;;
77160;SDS011;66135;0.000;0.000;2023-03-19T08:38:31;3.95;;;1.05;;
77160;SDS011;66135;0.000;0.000;2023-03-19T08:43:26;3.78;;;1.55;;
77160;SDS011;66135;0.000;0.000;2023-03-19T08:46:01;4.50;;;1.13;;
77160;SDS011;66135;0.000;0.000;2023-03-19T08:48:27;1.75;;;0.20;;
77160;SDS011;66135;0.000;0.000;2023-03-19T08:53:19;3.28;;;1.10;;
77160;SDS011;66135;0.000;0.000;2023-03-19T08:55:49;2.08;;;1.45;;
77160;SDS011;66135;0.000;0.000;2023-03-19T08:58:18;2.80;;;0.75;;
77160;SDS011;66135;0.000;0.000;2023-03-19T09:00:44;1.65;;;1.27;;
77160;SDS011;66135;0.000;0.000;2023-03-19T09:05:35;1.17;;;0.80;;
77160;SDS011;66135;0.000;0.000;2023-03-19T09:08:00;1.15;;;1.05;;
77160;SDS011;66135;0.000;0.000;2023-03-19T09:10:26;2.13;;;0.82;;
77160;SDS011;66135;0.000;0.000;2023-03-19T09:12:51;2.35;;;0.90;;
77160;SDS011;66135;0.000;0.000;2023-03-19T09:15:17;5.85;;;1.08;;
77160;SDS011;66135;0.000;0.000;2023-03-19T09:17:43;1.23;;;0.10;;
77160;SDS011;66135;0.000;0.000;2023-03-19T09:22:34;2.13;;;0.80;;
77160;SDS011;66135;0.000;0.000;2023-03-19T09:25:00;1.70;;;1.00;;
77160;SDS011;66135;0.000;0.000;2023-03-19T09:29:51;1.67;;;0.30;;
77160;SDS011;66135;0.000;0.000;2023-03-19T09:34:41;2.17;;;1.13;;
77160;SDS011;66135;0.000;0.000;2023-03-19T09:37:07;4.65;;;0.82;;
77160;SDS011;66135;0.000;0.000;2023-03-19T09:39:35;1.58;;;1.08;;
77160;SDS011;66135;0.000;0.000;2023-03-19T09:44:52;2.05;;;1.23;;
77160;SDS011;66135;0.000;0.000;2023-03-19T09:47:33;4.82;;;1.25;;
77160;SDS011;66135;0.000;0.000;2023-03-19T09:50:03;1.27;;;0.82;;
77160;SDS011;66135;0.000;0.000;2023-03-19T09:57:50;2.88;;;0.70;;
77160;SDS011;66135;0.000;0.000;2023-03-19T10:00:22;1.50;;;1.02;;
77160;SDS011;66135;0.000;0.000;2023-03-19T10:06:15;1.55;;;1.02;;
77160;SDS011;66135;0.000;0.000;2023-03-19T10:08:49;1.65;;;0.85;;
77160;SDS011;66135;0.000;0.000;2023-03-19T10:17:14;1.17;;;0.30;;
77160;SDS011;66135;0.000;0.000;2023-03-19T10:19:50;1.73;;;0.38;;
77160;SDS011;66135;0.000;0.000;2023-03-19T10:22:22;1.20;;;0.52;;
77160;SDS011;66135;0.000;0.000;2023-03-19T10:24:55;4.82;;;1.73;;
77160;SDS011;66135;0.000;0.000;2023-03-19T10:27:24;3.08;;;1.13;;
77160;SDS011;66135;0.000;0.000;2023-03-19T10:29:52;1.80;;;0.93;;
77160;SDS011;66135;0.000;0.000;2023-03-19T10:35:31;2.00;;;1.05;;
77160;SDS011;66135;0.000;0.000;2023-03-19T10:38:22;1.20;;;0.80;;
77160;SDS011;66135;0.000;0.000;2023-03-19T10:41:04;1.63;;;1.05;;
77160;SDS011;66135;0.000;0.000;2023-03-19T10:44:20;1.73;;;1.35;;
77160;SDS011;66135;0.000;0.000;2023-03-19T10:46:49;2.75;;;0.43;;
77160;SDS011;66135;0.000;0.000;2023-03-19T10:49:15;2.92;;;1.05;;
77160;SDS011;66135;0.000;0.000;2023-03-19T10:51:42;2.72;;;0.82;;
77160;SDS011;66135;0.000;0.000;2023-03-19T10:54:21;1.27;;;0.95;;
77160;SDS011;66135;0.000;0.000;2023-03-19T10:56:54;3.97;;;1.10;;
77160;SDS011;66135;0.000;0.000;2023-03-19T10:59:25;4.13;;;1.25;;
77160;SDS011;66135;0.000;0.000;2023-03-19T11:01:58;1.88;;;0.85;;
77160;SDS011;66135;0.000;0.000;2023-03-19T11:04:27;2.58;;;1.15;;
77160;SDS011;66135;0.000;0.000;2023-03-19T11:07:13;3.13;;;1.15;;
77160;SDS011;66135;0.000;0.000;2023-03-19T11:09:43;4.38;;;1.23;;
77160;SDS011;66135;0.000;0.000;2023-03-19T11:12:19;1.40;;;1.08;;
77160;SDS011;66135;0.000;0.000;2023-03-19T11:14:47;1.23;;;0.30;;
77160;SDS011;66135;0.000;0.000;2023-03-19T11:17:38;1.13;;;0.85;;
77160;SDS011;66135;0.000;0.000;2023-03-19T11:22:35;1.38;;;0.47;;
77160;SDS011;66135;0.000;0.000;2023-03-19T11:28:01;2.85;;;1.08;;
77160;SDS011;66135;0.000;0.000;2023-03-19T11:30:39;1.70;;;1.17;;
77160;SDS011;66135;0.000;0.000;2023-03-19T11:33:14;2.58;;;1.20;;
77160;SDS011;66135;0.000;0.000;2023-03-19T11:44:53;1.42;;;0.80;;
77160;SDS011;66135;0.000;0.000;2023-03-19T12:04:55;1.67;;;0.88;;
77160;SDS011;66135;0.000;0.000;2023-03-19T12:12:25;2.80;;;1.23;;
77160;SDS011;66135;0.000;0.000;2023-03-19T12:17:56;3.90;;;0.95;;
77160;SDS011;66135;0.000;0.000;2023-03-19T12:20:27;1.42;;;0.22;;
77160;SDS011;66135;0.000;0.000;2023-03-19T12:23:10;4.22;;;0.95;;
77160;SDS011;66135;0.000;0.000;2023-03-19T12:25:57;3.15;;;1.10;;
77160;SDS011;66135;0.000;0.000;2023-03-19T12:31:38;3.10;;;1.08;;
77160;SDS011;66135;0.000;0.000;2023-03-19T12:38:04;4.20;;;1.20;;
77160;SDS011;66135;0.000;0.000;2023-03-19T12:42:58;4.20;;;0.32;;
77160;SDS011;66135;0.000;0.000;2023-03-19T12:45:45;3.45;;;1.33;;
77160;SDS011;66135;0.000;0.000;2023-03-19T12:48:38;4.90;;;1.17;;
77160;SDS011;66135;0.000;0.000;2023-03-19T12:51:08;2.30;;;1.35;;
77160;SDS011;66135;0.000;0.000;2023-03-19T12:53:59;5.97;;;1.20;;
77160;SDS011;66135;0.000;0.000;2023-03-19T12:56:45;4.20;;;0.93;;
77160;SDS011;66135;0.000;0.000;2023-03-19T12:59:21;2.30;;;0.40;;
77160;SDS011;66135;0.000;0.000;2023-03-19T13:01:53;1.88;;;1.73;;
77160;SDS011;66135;0.000;0.000;2023-03-19T13:10:35;3.00;;;0.95;;
77160;SDS011;66135;0.000;0.000;2023-03-19T13:13:04;2.55;;;1.08;;
77160;SDS011;66135;0.000;0.000;2023-03-19T13:15:53;1.33;;;0.93;;
77160;SDS011;66135;0.000;0.000;2023-03-19T13:24:01;6.55;;;0.52;;
77160;SDS011;66135;0.000;0.000;2023-03-19T13:26:34;3.03;;;0.85;;
77160;SDS011;66135;0.000;0.000;2023-03-19T13:29:06;2.92;;;1.48;;
77160;SDS011;66135;0.000;0.000;2023-03-19T13:31:34;2.72;;;0.63;;
77160;SDS011;66135;0.000;0.000;2023-03-19T13:34:37;2.97;;;0.95;;
77160;SDS011;66135;0.000;0.000;2023-03-19T13:39:45;1.52;;;0.90;;
77160;SDS011;66135;0.000;0.000;2023-03-19T13:45:01;1.92;;;0.90;;
77160;SDS011;66135;0.000;0.000;2023-03-19T13:57:53;1.90;;;0.52;;
77160;SDS011;66135;0.000;0.000;2023-03-19T14:03:21;2.67;;;1.38;;
77160;SDS011;66135;0.000;0.000;2023-03-19T14:05:51;1.83;;;1.65;;
77160;SDS011;66135;0.000;0.000;2023-03-19T14:08:24;1.20;;;1.10;;
77160;SDS011;66135;0.000;0.000;2023-03-19T14:10:52;1.17;;;0.50;;
77160;SDS011;66135;0.000;0.000;2023-03-19T14:13:30;2.15;;;1.40;;
77160;SDS011;66135;0.000;0.000;2023-03-19T14:16:00;1.88;;;1.13;;
77160;SDS011;66135;0.000;0.000;2023-03-19T14:18:30;2.28;;;1.77;;
77160;SDS011;66135;0.000;0.000;2023-03-19T14:21:01;1.65;;;0.45;;
77160;SDS011;66135;0.000;0.000;2023-03-19T14:23:29;2.17;;;1.10;;
77160;SDS011;66135;0.000;0.000;2023-03-19T14:28:31;1.42;;;1.10;;
77160;SDS011;66135;0.000;0.000;2023-03-19T14:34:11;1.58;;;1.15;;
77160;SDS011;66135;0.000;0.000;2023-03-19T14:37:28;1.88;;;1.13;;
77160;SDS011;66135;0.000;0.000;2023-03-19T14:39:46;2.10;;;0.80;;
77160;SDS011;66135;0.000;0.000;2023-03-19T14:42:22;2.70;;;1.23;;
77160;SDS011;66135;0.000;0.000;2023-03-19T14:53:04;3.70;;;1.58;;
77160;SDS011;66135;0.000;0.000;2023-03-19T14:55:52;2.65;;;0.40;;
77160;SDS011;66135;0.000;0.000;2023-03-19T14:58:18;2.75;;;1.10;;
77160;SDS011;66135;0.000;0.000;2023-03-19T15:00:45;1.40;;;1.05;;
77160;SDS011;66135;0.000;0.000;2023-03-19T15:03:20;2.63;;;0.88;;
77160;SDS011;66135;0.000;0.000;2023-03-19T15:05:57;2.70;;;1.52;;
77160;SDS011;66135;0.000;0.000;2023-03-19T15:08:25;3.35;;;1.92;;
77160;SDS011;66135;0.000;0.000;2023-03-19T15:18:48;5.75;;;1.63;;
77160;SDS011;66135;0.000;0.000;2023-03-19T15:21:14;4.57;;;1.63;;
77160;SDS011;66135;0.000;0.000;2023-03-19T15:26:08;4.82;;;2.00;;
77160;SDS011;66135;0.000;0.000;2023-03-19T15:31:10;3.42;;;1.95;;
77160;SDS011;66135;0.000;0.000;2023-03-19T15:33:37;4.45;;;1.83;;
77160;SDS011;66135;0.000;0.000;2023-03-19T15:38:33;5.03;;;1.67;;
77160;SDS011;66135;0.000;0.000;2023-03-19T15:41:03;2.95;;;2.58;;
77160;SDS011;66135;0.000;0.000;2023-03-19T15:43:32;3.63;;;1.70;;
77160;SDS011;66135;0.000;0.000;2023-03-19T15:46:11;3.90;;;1.40;;
77160;SDS011;66135;0.000;0.000;2023-03-19T15:48:52;5.32;;;1.58;;
77160;SDS011;66135;0.000;0.000;2023-03-19T15:51:32;3.00;;;1.40;;
77160;SDS011;66135;0.000;0.000;2023-03-19T15:53:58;3.75;;;1.98;;
77160;SDS011;66135;0.000;0.000;2023-03-19T15:56:26;3.47;;;2.20;;
77160;SDS011;66135;0.000;0.000;2023-03-19T15:58:54;3.85;;;1.83;;
77160;SDS011;66135;0.000;0.000;2023-03-19T16:01:21;2.10;;;1.60;;
77160;SDS011;66135;0.000;0.000;2023-03-19T16:04:00;4.28;;;2.47;;
77160;SDS011;66135;0.000;0.000;2023-03-19T16:06:30;3.70;;;2.50;;
77160;SDS011;66135;0.000;0.000;2023-03-19T16:12:33;4.18;;;2.10;;
77160;SDS011;66135;0.000;0.000;2023-03-19T16:17:47;4.35;;;2.78;;
77160;SDS011;66135;0.000;0.000;2023-03-19T16:20:13;2.85;;;2.45;;
77160;SDS011;66135;0.000;0.000;2023-03-19T16:22:40;3.60;;;2.42;;
77160;SDS011;66135;0.000;0.000;2023-03-19T16:25:16;4.63;;;2.75;;
77160;SDS011;66135;0.000;0.000;2023-03-19T16:27:43;3.95;;;2.50;;
77160;SDS011;66135;0.000;0.000;2023-03-19T16:30:20;3.03;;;1.15;;
77160;SDS011;66135;0.000;0.000;2023-03-19T16:32:59;2.65;;;2.13;;
77160;SDS011;66135;0.000;0.000;2023-03-19T16:35:27;3.17;;;2.40;;
77160;SDS011;66135;0.000;0.000;2023-03-19T16:40:48;3.90;;;2.97;;
77160;SDS011;66135;0.000;0.000;2023-03-19T16:43:20;6.28;;;4.63;;
77160;SDS011;66135;0.000;0.000;2023-03-19T16:45:50;5.13;;;3.20;;
77160;SDS011;66135;0.000;0.000;2023-03-19T16:48:37;5.47;;;3.70;;
77160;SDS011;66135;0.000;0.000;2023-03-19T16:51:03;6.45;;;5.00;;
77160;SDS011;66135;0.000;0.000;2023-03-19T16:53:33;6.05;;;3.08;;
77160;SDS011;66135;0.000;0.000;2023-03-19T16:55:59;5.40;;;4.13;;
77160;SDS011;66135;0.000;0.000;2023-03-19T16:58:32;7.80;;;4.70;;
77160;SDS011;66135;0.000;0.000;2023-03-19T17:01:00;6.93;;;4.97;;
77160;SDS011;66135;0.000;0.000;2023-03-19T17:03:26;6.05;;;3.53;;
77160;SDS011;66135;0.000;0.000;2023-03-19T17:06:01;7.28;;;4.68;;
77160;SDS011;66135;0.000;0.000;2023-03-19T17:08:27;9.90;;;5.25;;
77160;SDS011;66135;0.000;0.000;2023-03-19T17:10:53;9.40;;;5.10;;
77160;SDS011;66135;0.000;0.000;2023-03-19T17:15:56;7.97;;;5.25;;
77160;SDS011;66135;0.000;0.000;2023-03-19T17:18:24;11.82;;;5.63;;
77160;SDS011;66135;0.000;0.000;2023-03-19T17:20:56;10.13;;;4.00;;
77160;SDS011;66135;0.000;0.000;2023-03-19T17:23:22;15.43;;;4.85;;
77160;SDS011;66135;0.000;0.000;2023-03-19T17:25:50;16.88;;;5.57;;
77160;SDS011;66135;0.000;0.000;2023-03-19T17:28:19;16.67;;;5.88;;
77160;SDS011;66135;0.000;0.000;2023-03-19T17:30:45;15.68;;;4.40;;
77160;SDS011;66135;0.000;0.000;2023-03-19T17:33:23;11.40;;;5.22;;
77160;SDS011;66135;0.000;0.000;2023-03-19T17:35:54;15.05;;;5.85;;
77160;SDS011;66135;0.000;0.000;2023-03-19T17:38:21;13.50;;;5.75;;
77160;SDS011;66135;0.000;0.000;2023-03-19T17:40:52;13.73;;;3.78;;
77160;SDS011;66135;0.000;0.000;2023-03-19T17:43:17;16.13;;;3.88;;
77160;SDS011;66135;0.000;0.000;2023-03-19T17:45:43;14.07;;;5.05;;
77160;SDS011;66135;0.000;0.000;2023-03-19T17:48:17;11.77;;;5.30;;
77160;SDS011;66135;0.000;0.000;2023-03-19T17:50:46;15.88;;;5.10;;
77160;SDS011;66135;0.000;0.000;2023-03-19T17:53:12;12.93;;;4.60;;
77160;SDS011;66135;0.000;0.000;2023-03-19T17:55:38;10.65;;;4.75;;
77160;SDS011;66135;0.000;0.000;2023-03-19T17:58:05;14.80;;;3.75;;
77160;SDS011;66135;0.000;0.000;2023-03-19T18:00:30;8.80;;;3.10;;
77160;SDS011;66135;0.000;0.000;2023-03-19T18:02:56;12.57;;;5.28;;
77160;SDS011;66135;0.000;0.000;2023-03-19T18:07:49;11.40;;;4.88;;
77160;SDS011;66135;0.000;0.000;2023-03-19T18:10:18;13.18;;;4.80;;
77160;SDS011;66135;0.000;0.000;2023-03-19T18:12:45;13.20;;;4.13;;
77160;SDS011;66135;0.000;0.000;2023-03-19T18:15:11;9.85;;;3.60;;
77160;SDS011;66135;0.000;0.000;2023-03-19T18:17:39;9.93;;;4.82;;
77160;SDS011;66135;0.000;0.000;2023-03-19T18:20:10;6.72;;;4.13;;